Colorado Springs, CO (80919)

1:29 AM MDT on July 22, 2017 (GMT -0600)
At the Orton-Urbina's | | Change Station

Elev 6700 ft 38.93 °N, 104.85 °W | Updated 4 minutes ago

Overcast
Overcast
61.3 °F
Feels Like 61.3 °F
N
6.7
Wind Variable Wind from North
Gusts 9.0 mph

Today
High -- | Low -- °F
--% Chance of Precip.
Yesterday
High -- | Low -- °F
Precip. -- in
Pressure 30.01 in
Visibility 10.0 miles
Clouds Overcast 16000 ft
Dew Point 54 °F
Humidity 76%
Rainfall Not available.
Snow Depth Not available.
5:52 AM 8:19 PM
Waning Crescent, 2% visible
METAR KAFF 220658Z AUTO 34008KT 10SM OVC160 16/13 A3030 RMK AO2 DZB05E18 SLP162 P0000 T01610129 403090144
Pressure 30.01 in
Visibility 10.0 miles
Clouds Overcast 16000 ft
Dew Point 54 °F
Humidity 76%
Rainfall Not available.
Snow Depth Not available.
5:52 AM 8:19 PM
Waning Crescent, 2% visible
METAR KAFF 220658Z AUTO 34008KT 10SM OVC160 16/13 A3030 RMK AO2 DZB05E18 SLP162 P0000 T01610129 403090144

Get Severe Weather Alerts

Thanks for signing up!

Be on the lookout for a verification email in your inbox.

You'll start receiving the daily forecast at 6 AM.

×

10-Day Weather Forecast

Almanac

Astronomy

Jul. 22, 2017 Rise Set
Actual Time
Civil Twilight
Nautical Twilight
Astronomical Twilight
Moon
Length of Visible Light
Length of Day
Tomorrow will be .
, % of the Moon is Illuminated

Today's Extremes

State Highs State Lows

Community

WunderPhotos

Category 6

Welcome to Category 6. This is the collective home for Weather Underground's featured writeups by Dr. Jeff Masters (right), Bob Henson (left), Chris Burt, and other regular contributors.

Nearby

Air Quality

  Air Quality AQ Index Pollutant
Not available.

Snow Depth

Station Depth Elevation

Earthquake Activity

City Distance Mag. Time & Date
Minimum magnitude displayed is 2.5.

Coastal Water Temperatures

Place Temperature

Stations

Nearby Weather Stations

Station Location Temp. Windchill Dew Point Humidity Wind Precip. Elev Updated Type
                   

Watches & Warnings

There are currently no watches in effect.